JA2026 RJFK-RJFK

Flight info

Callsign JA2026
Flight time N/A
Altitude 5000
Route DJC
Aircraft PC12/L-SDFGRWY/S

Departure

Time 2026-04-28 14:53
Airport Kagoshima Airport (RJFK)

Arrival

Time N/A
Airport Kagoshima Airport (RJFK)
Time Latitude Longitude Altitude Speed Heading
2026-04-28 14:32 31.79633 130.72063 887 ft 0 kts 325°
2026-04-28 14:45 31.79635 130.72062 886 ft 2 kts 336°
2026-04-28 14:45 31.79656 130.72052 886 ft 0 kts 353°
2026-04-28 14:46 31.79666 130.72053 886 ft 5 kts 32°
2026-04-28 14:46 31.79669 130.72104 886 ft 13 kts 105°
2026-04-28 14:46 31.79560 130.72243 887 ft 16 kts 154°
2026-04-28 14:47 31.79523 130.72265 889 ft 3 kts 151°
2026-04-28 14:47 31.79500 130.72291 889 ft 10 kts 123°
2026-04-28 14:47 31.79509 130.72375 892 ft 0 kts 55°
2026-04-28 14:50 31.79512 130.72382 892 ft 4 kts 61°
2026-04-28 14:51 31.79560 130.72452 898 ft 18 kts 18°
2026-04-28 14:51 31.79618 130.72419 898 ft 0 kts 327°
2026-04-28 14:51 31.79624 130.72415 898 ft 6 kts 329°
2026-04-28 14:52 31.79651 130.72404 898 ft 1 kts 336°
2026-04-28 14:52 31.79777 130.72315 897 ft 52 kts 330°
2026-04-28 14:52 31.80260 130.71990 899 ft 105 kts 327°
2026-04-28 14:52 31.80990 130.71497 942 ft 132 kts 330°
2026-04-28 14:53 31.81775 130.70961 1294 ft 128 kts 326°
2026-04-28 14:53 31.82501 130.70359 1832 ft 128 kts 322°
2026-04-28 14:53 31.83154 130.69655 2389 ft 132 kts 293°
2026-04-28 14:53 31.83304 130.68473 2512 ft 166 kts 257°
2026-04-28 14:54 31.82583 130.67420 3017 ft 175 kts 215°
2026-04-28 14:54 31.81322 130.67532 3128 ft 200 kts 152°
2026-04-28 14:54 31.80213 130.68678 2985 ft 213 kts 136°
2026-04-28 14:54 31.79060 130.69765 2859 ft 221 kts 144°
2026-04-28 14:55 31.77834 130.70811 2962 ft 217 kts 146°
2026-04-28 14:55 31.76549 130.71718 3102 ft 213 kts 152°